createdAt,value
2017-02-22T00:00:10.982Z,1006.631
2017-02-22T00:03:15.299Z,1006.533
2017-02-22T00:06:16.465Z,1006.458
2017-02-22T00:09:21.692Z,1006.383
2017-02-22T00:12:27.271Z,1006.270
2017-02-22T00:15:32.420Z,1006.164
2017-02-22T00:21:43.628Z,1005.913
2017-02-22T00:24:48.635Z,1005.758
2017-02-22T00:27:52.020Z,1005.696
2017-02-22T00:30:57.362Z,1005.542
2017-02-22T00:34:01.732Z,1005.484
2017-02-22T00:37:10.469Z,1005.414
2017-02-22T00:40:08.961Z,1005.379
2017-02-22T00:43:09.198Z,1005.174
2017-02-22T00:46:21.558Z,1005.141
2017-02-22T00:49:24.502Z,1005.006
2017-02-22T00:52:29.730Z,1004.927
2017-02-22T00:55:29.553Z,1004.808
2017-02-22T00:58:39.814Z,1004.684
2017-02-22T01:01:44.952Z,1004.594
2017-02-22T01:04:44.551Z,1004.484
2017-02-22T01:07:55.425Z,1004.363
2017-02-22T01:11:00.621Z,1004.195
2017-02-22T01:14:05.400Z,1004.107
2017-02-22T01:17:09.788Z,1003.988
2017-02-22T01:20:11.581Z,1003.851
2017-02-22T01:23:21.932Z,1003.734
2017-02-22T01:26:24.849Z,1003.711
2017-02-22T01:29:30.116Z,1003.582
2017-02-22T01:32:32.151Z,1003.408
2017-02-22T01:35:40.818Z,1003.372
2017-02-22T01:38:45.560Z,1003.219
2017-02-22T01:41:51.368Z,1003.124
2017-02-22T01:44:56.138Z,1002.950
2017-02-22T01:48:00.434Z,1002.742
2017-02-22T01:51:05.884Z,1002.555
2017-02-22T01:54:11.207Z,1002.519
2017-02-22T01:57:19.044Z,1002.383
2017-02-22T02:00:23.501Z,1002.305
2017-02-22T02:03:24.410Z,1002.181
2017-02-22T03:42:09.351Z,998.483
2017-02-22T03:45:13.067Z,998.340
2017-02-22T03:48:16.376Z,998.249
2017-02-22T03:54:26.099Z,998.053
2017-02-22T03:57:29.613Z,997.901
2017-02-22T04:12:48.222Z,997.426
2017-02-22T04:15:55.558Z,997.293
2017-02-22T04:18:53.311Z,997.190
2017-02-22T04:21:53.524Z,997.102
2017-02-22T04:24:59.405Z,997.060
2017-02-22T04:28:10.475Z,996.874
2017-02-22T04:31:15.397Z,996.820
2017-02-22T04:34:20.627Z,996.731
2017-02-22T04:37:20.731Z,996.649
2017-02-22T04:40:32.555Z,996.513
2017-02-22T04:43:32.433Z,996.436
2017-02-22T04:46:42.851Z,996.315
2017-02-22T04:52:51.084Z,996.238
2017-02-22T04:59:01.127Z,996.123
2017-02-22T05:02:06.534Z,995.992
2017-02-22T05:05:11.654Z,995.984
2017-02-22T05:08:17.508Z,995.861
2017-02-22T05:11:17.490Z,995.775
2017-02-22T05:14:28.582Z,995.715
2017-02-22T05:17:33.673Z,995.728
2017-02-22T05:20:39.075Z,995.636
2017-02-22T05:23:44.178Z,995.605
2017-02-22T05:26:49.003Z,995.652
2017-02-22T05:29:49.211Z,995.510
2017-02-22T05:33:00.290Z,995.447
2017-02-22T05:36:10.801Z,995.449
2017-02-22T05:39:09.664Z,995.438
2017-02-22T05:42:16.287Z,995.356
2017-02-22T05:45:19.896Z,995.388
2017-02-22T05:48:25.288Z,995.250
2017-02-22T05:51:27.437Z,995.266
2017-02-22T05:57:43.315Z,995.220
2017-02-22T06:00:53.142Z,995.142
2017-02-22T06:03:46.785Z,995.226
2017-02-22T06:13:10.779Z,995.143
2017-02-22T06:16:12.270Z,995.156
2017-02-22T06:19:17.769Z,995.105
2017-02-22T06:22:23.084Z,995.070
2017-02-22T06:28:34.381Z,995.074
2017-02-22T06:31:39.415Z,995.070
2017-02-22T06:34:44.944Z,995.072
2017-02-22T06:40:54.717Z,995.166
2017-02-22T06:43:59.217Z,995.245
2017-02-22T06:47:04.988Z,995.207
2017-02-22T06:50:11.827Z,995.225
2017-02-22T06:53:15.500Z,995.224
2017-02-22T06:56:21.035Z,995.247
2017-02-22T06:59:26.236Z,995.192
2017-02-22T07:02:32.394Z,995.242
2017-02-22T07:05:38.177Z,995.270
2017-02-22T07:08:39.793Z,995.289
2017-02-22T07:11:46.116Z,995.352
2017-02-22T07:14:48.104Z,995.252
2017-02-22T07:17:53.087Z,995.222
2017-02-22T07:20:58.262Z,995.346
2017-02-22T07:24:03.419Z,995.386
2017-02-22T07:27:12.334Z,995.409
2017-02-22T07:30:13.358Z,995.460
2017-02-22T07:33:17.890Z,995.446
2017-02-22T07:36:23.786Z,995.441
2017-02-22T07:39:29.199Z,995.429
2017-02-22T07:42:34.588Z,995.429
2017-02-22T07:45:40.510Z,995.453
2017-02-22T07:48:45.529Z,995.374
2017-02-22T07:51:49.884Z,995.255
2017-02-22T07:54:52.588Z,995.121
2017-02-22T07:57:57.498Z,995.069
2017-02-22T08:01:08.887Z,995.130
2017-02-22T08:04:02.286Z,995.094
2017-02-22T08:07:13.348Z,995.090
2017-02-22T08:10:24.579Z,995.106
2017-02-22T08:13:28.787Z,995.104
2017-02-22T08:16:27.401Z,995.041
2017-02-22T08:19:32.782Z,995.007
2017-02-22T08:22:38.562Z,995.042
2017-02-22T08:25:36.482Z,995.117
2017-02-22T08:28:47.291Z,995.121
2017-02-22T08:31:52.606Z,995.095
2017-02-22T08:34:58.356Z,995.166
2017-02-22T08:38:03.777Z,995.187
2017-02-22T08:41:08.947Z,995.160
2017-02-22T08:47:18.843Z,995.243
2017-02-22T08:50:30.141Z,995.249
2017-02-22T08:53:33.703Z,995.322
2017-02-22T08:56:36.833Z,995.308
2017-02-22T08:59:42.146Z,995.395
2017-02-22T09:02:40.400Z,995.428
2017-02-22T09:08:49.550Z,995.503
2017-02-22T09:15:03.173Z,995.377
2017-02-22T10:16:18.337Z,995.306
2017-02-22T10:19:16.709Z,995.326
2017-02-22T10:22:27.198Z,995.291
2017-02-22T10:25:26.582Z,995.185
2017-02-22T10:31:35.428Z,995.293
2017-02-22T10:53:06.318Z,995.373
2017-02-22T11:08:29.376Z,995.356
2017-02-22T11:11:34.673Z,995.440
2017-02-22T11:14:38.464Z,995.381
2017-02-22T11:17:36.571Z,995.381
2017-02-22T11:20:42.347Z,995.356
2017-02-22T11:23:46.967Z,995.295
2017-02-22T11:26:52.807Z,995.256
2017-02-22T11:29:58.298Z,995.295
2017-02-22T11:32:58.906Z,995.187
2017-02-22T11:36:10.257Z,995.283
2017-02-22T11:39:21.408Z,995.185
2017-02-22T11:42:16.913Z,995.298
2017-02-22T11:45:25.955Z,995.242
2017-02-22T11:48:31.315Z,995.323
2017-02-22T11:51:37.304Z,995.416
2017-02-22T11:54:42.069Z,995.412
2017-02-22T11:57:47.740Z,995.365
2017-02-22T12:03:51.904Z,995.486
2017-02-22T12:10:09.086Z,995.426
2017-02-22T12:13:16.473Z,995.479
2017-02-22T12:16:18.203Z,995.477
2017-02-22T12:19:19.076Z,995.515
2017-02-22T12:22:25.099Z,995.583
2017-02-22T12:25:36.993Z,995.570
2017-02-22T12:28:41.033Z,995.598
2017-02-22T12:31:46.453Z,995.588
2017-02-22T12:34:46.924Z,995.609
2017-02-22T12:37:58.883Z,995.591
2017-02-22T12:41:03.981Z,995.632
2017-02-22T12:44:08.173Z,995.736
2017-02-22T12:47:13.651Z,995.578
2017-02-22T12:50:25.775Z,995.540
2017-02-22T13:02:45.353Z,995.434
2017-02-22T13:08:54.556Z,995.459
2017-02-22T13:11:58.653Z,995.485
2017-02-22T13:24:17.342Z,995.475
2017-02-22T13:27:21.542Z,995.389
2017-02-22T13:30:26.070Z,995.348
2017-02-22T13:33:29.904Z,995.273
2017-02-22T13:36:34.103Z,995.279
2017-02-22T13:45:48.290Z,995.329
2017-02-22T13:48:45.695Z,995.352
2017-02-22T13:51:43.049Z,995.376
2017-02-22T13:54:53.159Z,995.371
2017-02-22T13:57:58.548Z,995.279
2017-02-22T14:01:03.858Z,995.330
2017-02-22T14:04:09.269Z,995.320
2017-02-22T14:07:14.279Z,995.503
2017-02-22T14:10:19.748Z,995.304
2017-02-22T14:13:19.940Z,995.365
2017-02-22T14:16:31.092Z,995.408
2017-02-22T14:19:36.275Z,995.317
2017-02-22T14:22:41.164Z,995.402
2017-02-22T14:38:12.005Z,995.350
2017-02-22T14:44:19.981Z,995.413
2017-02-22T14:47:22.379Z,995.461
2017-02-22T14:50:25.041Z,995.448
2017-02-22T14:56:32.033Z,995.473
2017-02-22T15:05:42.053Z,995.458
2017-02-22T15:08:45.385Z,995.412
2017-02-22T15:18:00.028Z,995.403
2017-02-22T15:24:09.646Z,995.479
2017-02-22T15:30:17.370Z,995.437
2017-02-22T15:33:21.641Z,995.385
2017-02-22T15:39:29.264Z,995.310
2017-02-22T15:42:34.164Z,995.258
2017-02-22T15:45:38.415Z,995.293
2017-02-22T15:51:46.442Z,995.285
2017-02-22T15:57:54.745Z,995.231
2017-02-22T16:00:59.797Z,995.281
2017-02-22T16:04:04.546Z,995.345
2017-02-22T16:07:09.818Z,995.336
2017-02-22T16:10:13.927Z,995.272
2017-02-22T16:13:17.158Z,995.260
2017-02-22T16:16:21.312Z,995.218
2017-02-22T16:22:29.807Z,995.063
2017-02-22T16:25:33.551Z,995.104
2017-02-22T16:28:37.512Z,995.101
2017-02-22T16:31:41.389Z,995.042
2017-02-22T16:34:46.615Z,995.064
2017-02-22T16:56:11.048Z,995.199
2017-02-22T16:59:21.681Z,995.304
2017-02-22T17:02:26.371Z,995.248
2017-02-22T17:08:35.317Z,995.332
2017-02-22T17:17:47.377Z,995.346
2017-02-22T17:20:51.656Z,995.293
2017-02-22T17:23:57.012Z,995.255
2017-02-22T17:27:00.975Z,995.285
2017-02-22T17:30:04.875Z,995.227
2017-02-22T17:33:08.942Z,995.372
2017-02-22T17:39:18.112Z,995.332
2017-02-22T17:48:32.176Z,995.319
2017-02-22T17:51:35.792Z,995.335
2017-02-22T17:57:43.158Z,995.283
2017-02-22T18:00:47.004Z,995.377
2017-02-22T18:03:51.608Z,995.307
2017-02-22T18:06:55.405Z,995.285
2017-02-22T18:13:03.888Z,995.082
2017-02-22T18:16:06.955Z,995.040
2017-02-22T18:19:12.114Z,995.108
2017-02-22T18:22:16.340Z,995.199
2017-02-22T18:34:33.586Z,995.229
2017-02-22T18:43:44.188Z,995.297
2017-02-22T18:49:46.696Z,995.285
2017-02-22T18:52:55.521Z,995.296
2017-02-22T18:56:00.026Z,995.275
2017-02-22T19:02:07.889Z,995.331
2017-02-22T19:05:12.049Z,995.283
2017-02-22T19:11:19.606Z,995.342
2017-02-22T19:14:23.002Z,995.217
2017-02-22T19:20:30.468Z,995.216
2017-02-22T19:29:34.454Z,995.228
2017-02-22T19:32:44.871Z,995.221
2017-02-22T19:35:49.471Z,995.154
2017-02-22T19:41:56.044Z,995.361
2017-02-22T19:48:06.153Z,995.272
2017-02-22T19:54:13.788Z,995.432
2017-02-22T19:57:17.738Z,995.467
2017-02-22T20:00:16.920Z,995.432
2017-02-22T20:03:21.376Z,995.392
2017-02-22T20:06:26.590Z,995.412
2017-02-22T20:09:31.371Z,995.406
2017-02-22T20:12:36.626Z,995.365
2017-02-22T20:15:41.759Z,995.456
2017-02-22T20:18:47.222Z,995.420
2017-02-22T20:21:52.636Z,995.381
2017-02-22T20:24:58.457Z,995.390
2017-02-22T20:28:03.920Z,995.302
2017-02-22T20:31:04.153Z,995.332
2017-02-22T20:34:16.074Z,995.317
2017-02-22T20:37:20.709Z,995.282
2017-02-22T20:40:25.163Z,995.197
2017-02-22T20:43:30.490Z,995.083
2017-02-22T20:49:41.708Z,995.307
2017-02-22T20:52:52.722Z,995.157
2017-02-22T20:55:50.500Z,995.149
2017-02-22T20:58:56.170Z,995.202
2017-02-22T21:01:55.432Z,995.203
2017-02-22T21:05:06.300Z,995.251
2017-02-22T21:08:11.423Z,995.260
2017-02-22T21:11:16.778Z,995.349
2017-02-22T21:14:16.691Z,995.315
2017-02-22T21:17:27.600Z,995.420
2017-02-22T21:20:33.500Z,995.383
2017-02-22T21:23:38.783Z,995.437
2017-02-22T21:26:43.399Z,995.477
2017-02-22T21:29:48.470Z,995.468
2017-02-22T21:32:48.632Z,995.483
2017-02-22T21:35:59.521Z,995.467
2017-02-22T21:39:05.308Z,995.543
2017-02-22T21:42:10.327Z,995.567
2017-02-22T21:45:15.555Z,995.448
2017-02-22T21:48:21.387Z,995.369
2017-02-22T21:51:25.832Z,995.464
2017-02-22T21:54:30.959Z,995.326
2017-02-22T21:57:36.311Z,995.437
2017-02-22T22:00:41.709Z,995.268
2017-02-22T22:03:41.870Z,995.295
2017-02-22T22:09:58.411Z,995.315
2017-02-22T22:16:09.371Z,995.340
2017-02-22T22:19:14.557Z,995.386
2017-02-22T22:22:16.824Z,995.412
2017-02-22T22:25:26.309Z,995.418
2017-02-22T22:28:30.514Z,995.380
2017-02-22T22:31:35.781Z,995.547
2017-02-22T22:34:40.074Z,995.390
2017-02-22T22:37:45.268Z,995.443
2017-02-22T22:40:45.297Z,995.436
2017-02-22T22:43:57.224Z,995.554
2017-02-22T22:47:01.447Z,995.557
2017-02-22T22:50:05.807Z,995.574
2017-02-22T22:53:11.202Z,995.564
2017-02-22T22:59:20.610Z,995.582
2017-02-22T23:02:25.920Z,995.685
2017-02-22T23:05:31.684Z,995.567
2017-02-22T23:08:36.803Z,995.615
2017-02-22T23:11:42.175Z,995.556
2017-02-22T23:14:47.034Z,995.550
2017-02-22T23:17:46.965Z,995.553
2017-02-22T23:20:58.488Z,995.508
2017-02-22T23:24:01.770Z,995.551
2017-02-22T23:27:06.767Z,995.519
2017-02-22T23:30:08.876Z,995.529
2017-02-22T23:33:18.467Z,995.434
2017-02-22T23:39:33.410Z,995.423
2017-02-22T23:42:38.141Z,995.461
2017-02-22T23:45:40.981Z,995.452
2017-02-22T23:48:39.291Z,995.450
2017-02-22T23:51:45.173Z,995.434
2017-02-22T23:54:50.172Z,995.525
2017-02-22T23:57:54.665Z,995.483
